Anchorage, AK

2:49 AM AKDT on August 21, 2014 (GMT -0800)
Merrill | Change Station
CLOSE
Current Station
Airport
Location: Anchorage Merrill,
Elevation: 135 ft
Nearby Weather Stations
Active Advisory: Dense Fog Advisory Active Notice: Record Report

Elev 135 ft 61.22 °N, 149.85 °W | Updated 56 minutes ago

Fog
Fog
55 °F
Feels Like 55 °F
N
0
Wind Variable Wind from North

Today
High -- | Low -- °F
--% Chance of Precip.
Yesterday
High -- | Low -- °F
Precip. -- in
6:23 AM 9:39 PM
Waning Crescent, 15% visible
Pressure 30.15 in
Visibility 0.5 miles
Clouds
Dew Point 53 °F
Humidity 93%
Rainfall 0.00 in
Snow Depth 1 in , 1 in
UV Not available.
Pollen Not available.
Air Quality Not available.
Flu Activity Not available.
METAR PAMR 210953Z 00000KT 1/2SM FG VV002 13/12 A3015 RMK AO2 SLP210 T01280117

More Conditions Fewer Conditions

Pressure 30.15 in
Visibility 0.5 miles
Clouds
Dew Point 53 °F
Humidity 93%
Rainfall 0.00 in
Snow Depth 1 in , 1 in
UV Not available.
Pollen Not available.
Air Quality Not available.
Flu Activity Not available.
METAR PAMR 210953Z 00000KT 1/2SM FG VV002 13/12 A3015 RMK AO2 SLP210 T01280117

More Conditions Fewer Conditions

10-Day Weather Forecast

Almanac

Astronomy

Aug. 21, 2014 Rise Set
Actual Time 6:23 AM AKDT 9:39 PM AKDT
Civil Twilight 5:32 AM AKDT 10:30 PM AKDT
Nautical Twilight 4:18 AM AKDT 11:42 PM AKDT
Astronomical Twilight 2:35 AM AKDT 1:29 AM AKDT
Moon 2:33 AM AKDT 7:38 PM AKDT
Length of Visible Light 16h 57m
Length of Day
15h 15m
Tomorrow will be 5m 37s shorter.
Waning Crescent, 15% of the Moon is Illuminated
Today
Waning Crescent
Aug 25
New
Sep 2
First Quarter
Sep 8
Full
Sep 15
Last Quarter

Today's Extremes

State Highs State Lows

Community

WunderPhotos

Upload Photos

1,745,871 photos uploaded!

Nearby

Snow Depth

Station Depth Elevation
Point Mackenzie 1 in 200 ft
Indian Pass 1 in 2300 ft
Turnagain Pass 2 in 1880 ft
Summit Creek 0 in 1400 ft
Grandview 0 in 1100 ft

Earthquake Activity

City Distance Mag. Time & Date
No recent earthquake activity has been reported nearby.
Minimum magnitude displayed is 2.5.

Coastal Water Temperatures

Place Temperature
No Stations Reporting

Nearby Weather Stations